createdAt,value
2023-04-02T00:02:20.546Z,77.90
2023-04-02T00:05:16.390Z,77.88
2023-04-02T00:07:44.618Z,78.42
2023-04-02T00:10:29.494Z,78.86
2023-04-02T00:13:43.440Z,79.08
2023-04-02T00:16:14.044Z,79.33
2023-04-02T00:18:46.315Z,79.57
2023-04-02T00:21:25.781Z,79.40
2023-04-02T00:23:55.272Z,78.90
2023-04-02T00:26:21.812Z,79.01
2023-04-02T00:28:49.370Z,79.02
2023-04-02T00:31:18.574Z,79.31
2023-04-02T00:33:46.236Z,79.49
2023-04-02T00:36:12.832Z,79.77
2023-04-02T00:38:43.628Z,79.79
2023-04-02T00:41:16.292Z,79.52
2023-04-02T00:43:46.673Z,79.13
2023-04-02T00:46:21.965Z,78.41
2023-04-02T00:49:02.731Z,78.15
2023-04-02T00:51:53.169Z,79.19
2023-04-02T00:54:22.968Z,79.40
2023-04-02T00:56:53.742Z,79.49
2023-04-02T00:59:35.652Z,79.69
2023-04-02T01:02:14.716Z,79.51
2023-04-02T01:04:41.679Z,80.08
2023-04-02T01:07:12.214Z,79.91
2023-04-02T01:10:01.013Z,79.81
2023-04-02T01:13:06.313Z,79.58
2023-04-02T01:15:43.353Z,79.77
2023-04-02T01:18:18.824Z,80.18
2023-04-02T01:21:11.615Z,80.87
2023-04-02T01:24:02.419Z,80.82
2023-04-02T01:27:03.861Z,80.58
2023-04-02T01:29:40.467Z,80.65
2023-04-02T01:32:10.953Z,80.34
2023-04-02T01:34:37.950Z,80.34
2023-04-02T01:37:07.251Z,81.03
2023-04-02T01:39:49.201Z,80.53
2023-04-02T01:42:37.593Z,79.90
2023-04-02T01:45:14.245Z,80.35
2023-04-02T01:47:42.657Z,80.89
2023-04-02T01:50:18.151Z,81.42
2023-04-02T01:52:47.124Z,81.11
2023-04-02T01:55:17.840Z,81.73
2023-04-02T01:57:49.282Z,82.05
2023-04-02T02:00:17.443Z,82.04
2023-04-02T02:02:48.644Z,82.38
2023-04-02T02:05:18.005Z,82.97
2023-04-02T02:07:45.374Z,82.64
2023-04-02T02:10:18.278Z,81.86
2023-04-02T02:12:46.224Z,82.25
2023-04-02T02:15:23.237Z,82.17
2023-04-02T02:17:50.703Z,82.71
2023-04-02T02:20:17.957Z,82.17
2023-04-02T02:22:47.762Z,82.12
2023-04-02T02:25:24.114Z,82.38
2023-04-02T02:28:05.683Z,82.00
2023-04-02T02:30:52.815Z,81.56
2023-04-02T02:33:28.465Z,81.92
2023-04-02T02:36:02.935Z,81.89
2023-04-02T02:38:57.749Z,81.92
2023-04-02T02:41:41.580Z,81.27
2023-04-02T02:44:17.049Z,81.22
2023-04-02T02:46:47.956Z,81.18
2023-04-02T02:49:23.792Z,81.21
2023-04-02T02:51:57.998Z,80.79
2023-04-02T02:54:27.160Z,80.50
2023-04-02T02:57:00.235Z,80.54
2023-04-02T02:59:29.629Z,80.78
2023-04-02T03:01:56.805Z,80.83
2023-04-02T03:04:24.504Z,81.00
2023-04-02T03:06:53.501Z,80.97
2023-04-02T03:09:36.764Z,80.91
2023-04-02T03:12:12.148Z,80.07
2023-04-02T03:14:46.459Z,80.19
2023-04-02T03:17:21.061Z,79.87
2023-04-02T03:19:56.166Z,80.37
2023-04-02T03:23:15.005Z,79.77
2023-04-02T03:25:46.420Z,79.67
2023-04-02T03:28:18.519Z,80.19
2023-04-02T03:30:52.396Z,80.36
2023-04-02T03:33:28.717Z,80.17
2023-04-02T03:35:58.090Z,80.55
2023-04-02T03:38:35.698Z,79.48
2023-04-02T03:41:15.345Z,79.40
2023-04-02T03:43:52.739Z,80.12
2023-04-02T03:46:39.361Z,79.59
2023-04-02T03:49:23.934Z,79.39
2023-04-02T03:51:57.481Z,80.13
2023-04-02T03:54:23.878Z,79.90
2023-04-02T03:56:52.689Z,79.78
2023-04-02T03:59:59.412Z,79.56
2023-04-02T04:02:39.705Z,79.18
2023-04-02T04:05:18.365Z,79.41
2023-04-02T04:07:45.110Z,78.94
2023-04-02T04:10:19.738Z,78.70
2023-04-02T04:12:51.847Z,78.48
2023-04-02T04:15:33.293Z,78.37
2023-04-02T04:18:34.907Z,78.71
2023-04-02T04:21:11.914Z,78.18
2023-04-02T04:23:40.985Z,78.25
2023-04-02T04:26:21.009Z,78.29
2023-04-02T04:29:09.544Z,78.53
2023-04-02T04:31:49.543Z,78.54
2023-04-02T04:34:26.340Z,78.24
2023-04-02T04:36:57.361Z,78.48
2023-04-02T04:39:29.928Z,78.23
2023-04-02T04:42:00.846Z,78.34
2023-04-02T04:44:37.856Z,78.57
2023-04-02T04:47:15.421Z,78.80
2023-04-02T04:49:55.199Z,79.01
2023-04-02T04:52:25.761Z,79.18
2023-04-02T04:54:52.529Z,78.99
2023-04-02T04:57:37.141Z,78.26
2023-04-02T05:00:07.103Z,78.89
2023-04-02T05:02:41.895Z,78.98
2023-04-02T05:05:19.062Z,78.52
2023-04-02T05:07:51.142Z,78.49
2023-04-02T05:10:40.920Z,78.36
2023-04-02T05:13:23.813Z,78.39
2023-04-02T05:16:13.291Z,78.17
2023-04-02T05:18:49.069Z,77.99
2023-04-02T05:21:18.137Z,78.65
2023-04-02T05:23:56.838Z,78.46
2023-04-02T05:26:50.421Z,78.46
2023-04-02T05:29:33.362Z,79.10
2023-04-02T05:32:25.739Z,78.93
2023-04-02T05:34:55.753Z,78.87
2023-04-02T05:37:26.272Z,78.11
2023-04-02T05:39:59.606Z,78.41
2023-04-02T05:42:30.721Z,78.11
2023-04-02T05:45:20.704Z,78.11
2023-04-02T05:47:50.586Z,78.95
2023-04-02T05:50:30.211Z,78.48
2023-04-02T05:53:08.857Z,78.84
2023-04-02T05:55:59.697Z,78.34
2023-04-02T05:58:36.686Z,78.51
2023-04-02T06:01:20.995Z,77.76
2023-04-02T06:04:05.585Z,77.34
2023-04-02T06:06:43.932Z,76.60
2023-04-02T06:09:21.588Z,75.81
2023-04-02T06:11:57.013Z,75.80
2023-04-02T06:14:23.619Z,74.59
2023-04-02T06:16:50.371Z,74.71
2023-04-02T06:19:30.877Z,74.91
2023-04-02T06:22:10.580Z,75.07
2023-04-02T06:24:41.038Z,74.61
2023-04-02T06:27:12.535Z,74.60
2023-04-02T06:29:44.309Z,74.60
2023-04-02T06:32:12.405Z,74.45
2023-04-02T06:34:40.715Z,74.13
2023-04-02T06:37:37.488Z,73.71
2023-04-02T06:40:17.910Z,73.40
2023-04-02T06:42:45.989Z,73.57
2023-04-02T06:45:34.231Z,74.48
2023-04-02T06:48:02.911Z,74.30
2023-04-02T06:50:38.780Z,74.54
2023-04-02T06:53:09.515Z,74.50
2023-04-02T06:56:03.173Z,74.47
2023-04-02T06:58:29.491Z,74.59
2023-04-02T07:00:56.586Z,74.21
2023-04-02T07:03:27.472Z,73.79
2023-04-02T07:05:54.410Z,73.58
2023-04-02T07:08:21.261Z,73.07
2023-04-02T07:10:47.790Z,72.29
2023-04-02T07:13:16.476Z,72.34
2023-04-02T07:15:45.374Z,72.76
2023-04-02T07:18:33.150Z,73.21
2023-04-02T07:20:59.941Z,72.94
2023-04-02T07:23:27.081Z,72.66
2023-04-02T07:25:54.756Z,73.23
2023-04-02T07:28:22.867Z,72.72
2023-04-02T07:30:51.450Z,72.80
2023-04-02T07:33:20.927Z,72.58
2023-04-02T07:35:47.598Z,73.05
2023-04-02T07:38:14.003Z,72.14
2023-04-02T07:40:40.401Z,72.24
2023-04-02T07:43:06.906Z,73.23
2023-04-02T07:45:33.475Z,73.11
2023-04-02T07:48:12.744Z,72.90
2023-04-02T07:50:39.170Z,72.49
2023-04-02T07:53:06.956Z,72.05
2023-04-02T07:55:33.560Z,72.79
2023-04-02T07:58:00.193Z,72.56
2023-04-02T08:00:28.906Z,71.48
2023-04-02T08:02:56.057Z,72.30
2023-04-02T08:05:22.603Z,71.89
2023-04-02T08:07:54.440Z,71.90
2023-04-02T08:10:21.006Z,72.66
2023-04-02T08:12:47.363Z,72.63
2023-04-02T08:15:14.712Z,71.41
2023-04-02T08:17:41.709Z,72.71
2023-04-02T08:20:14.300Z,73.04
2023-04-02T08:22:40.825Z,72.54
2023-04-02T08:25:07.828Z,72.08
2023-04-02T08:27:34.181Z,71.81
2023-04-02T08:30:00.625Z,71.72
2023-04-02T08:32:28.879Z,71.11
2023-04-02T08:34:55.320Z,71.22
2023-04-02T08:37:21.670Z,71.00
2023-04-02T08:39:48.031Z,71.42
2023-04-02T08:42:39.407Z,71.61
2023-04-02T08:45:38.115Z,71.74
2023-04-02T08:48:06.357Z,71.34
2023-04-02T08:50:37.384Z,71.40
2023-04-02T08:53:12.168Z,70.76
2023-04-02T08:56:20.954Z,70.31
2023-04-02T08:58:49.232Z,69.51
2023-04-02T09:01:24.733Z,69.73
2023-04-02T09:03:55.807Z,70.26
2023-04-02T09:06:22.953Z,70.00
2023-04-02T09:08:51.789Z,70.14
2023-04-02T09:11:21.702Z,70.36
2023-04-02T09:13:54.358Z,69.32
2023-04-02T09:16:33.850Z,66.76
2023-04-02T09:19:00.916Z,68.91
2023-04-02T09:21:36.907Z,69.16
2023-04-02T09:24:05.293Z,68.50
2023-04-02T09:26:34.082Z,67.72
2023-04-02T09:29:28.435Z,67.66
2023-04-02T09:32:07.882Z,67.55
2023-04-02T09:34:36.480Z,67.96
2023-04-02T09:37:16.096Z,67.13
2023-04-02T09:39:42.885Z,67.40
2023-04-02T09:42:28.975Z,67.73
2023-04-02T09:45:22.037Z,67.18
2023-04-02T09:47:50.274Z,67.84
2023-04-02T09:50:30.772Z,67.46
2023-04-02T09:52:57.504Z,67.77
2023-04-02T09:55:28.920Z,66.84
2023-04-02T09:58:16.859Z,67.08
2023-04-02T10:00:54.030Z,66.83
2023-04-02T10:03:32.951Z,66.65
2023-04-02T10:06:12.899Z,66.73
2023-04-02T10:08:42.192Z,66.15
2023-04-02T10:11:36.420Z,65.78
2023-04-02T10:14:20.415Z,65.28
2023-04-02T10:16:53.657Z,65.18
2023-04-02T10:19:51.499Z,65.71
2023-04-02T10:22:20.824Z,65.23
2023-04-02T10:24:48.226Z,64.79
2023-04-02T10:27:37.496Z,64.55
2023-04-02T10:30:16.731Z,63.76
2023-04-02T10:32:43.010Z,64.06
2023-04-02T10:35:19.992Z,64.41
2023-04-02T10:37:46.917Z,63.67
2023-04-02T10:40:27.414Z,63.60
2023-04-02T10:43:21.728Z,64.02
2023-04-02T10:45:56.449Z,63.41
2023-04-02T10:48:48.679Z,62.36
2023-04-02T10:51:26.918Z,62.13
2023-04-02T10:54:06.723Z,60.38
2023-04-02T10:56:43.996Z,61.03
2023-04-02T10:59:24.515Z,61.19
2023-04-02T11:01:53.423Z,60.94
2023-04-02T11:04:39.056Z,60.34
2023-04-02T11:07:14.851Z,60.43
2023-04-02T11:09:45.301Z,59.71
2023-04-02T11:12:23.705Z,59.09
2023-04-02T11:14:52.232Z,58.76
2023-04-02T11:17:19.806Z,59.05
2023-04-02T11:19:46.688Z,58.95
2023-04-02T11:22:24.297Z,58.03
2023-04-02T11:24:52.917Z,58.29
2023-04-02T11:27:31.727Z,58.45
2023-04-02T11:30:18.206Z,57.92
2023-04-02T11:32:47.269Z,57.89
2023-04-02T11:35:27.424Z,58.51
2023-04-02T11:37:56.684Z,58.50
2023-04-02T11:40:41.578Z,59.32
2023-04-02T11:43:33.094Z,58.71
2023-04-02T11:46:23.422Z,58.62
2023-04-02T11:48:49.833Z,58.31
2023-04-02T11:51:22.533Z,56.55
2023-04-02T11:53:54.462Z,55.64
2023-04-02T11:56:48.004Z,55.89
2023-04-02T11:59:30.377Z,55.16
2023-04-02T12:02:06.539Z,55.75
2023-04-02T12:04:42.108Z,55.90
2023-04-02T12:07:20.557Z,55.35
2023-04-02T12:09:50.716Z,55.00
2023-04-02T12:12:26.235Z,54.39
2023-04-02T12:14:56.344Z,53.89
2023-04-02T12:17:39.098Z,53.71
2023-04-02T12:20:13.545Z,52.97
2023-04-02T12:22:47.526Z,52.43
2023-04-02T12:25:29.740Z,52.98
2023-04-02T12:28:09.790Z,51.96
2023-04-02T12:30:37.753Z,52.27
2023-04-02T12:33:19.345Z,50.45
2023-04-02T12:35:47.834Z,50.06
2023-04-02T12:38:27.381Z,51.49
2023-04-02T12:41:06.261Z,51.59
2023-04-02T12:43:34.952Z,50.33
2023-04-02T12:46:04.634Z,48.22
2023-04-02T12:48:32.309Z,49.66
2023-04-02T12:50:59.873Z,50.09
2023-04-02T12:53:29.051Z,49.74
2023-04-02T12:55:56.083Z,49.62
2023-04-02T12:58:40.584Z,50.43
2023-04-02T13:01:11.348Z,50.29
2023-04-02T13:03:37.904Z,49.52
2023-04-02T13:06:20.582Z,49.33
2023-04-02T13:08:47.188Z,49.41
2023-04-02T13:11:13.596Z,49.30
2023-04-02T13:13:43.405Z,49.12
2023-04-02T13:16:09.713Z,48.83
2023-04-02T13:18:37.990Z,47.92
2023-04-02T13:21:28.975Z,48.13
2023-04-02T13:23:55.556Z,46.83
2023-04-02T13:26:27.056Z,46.79
2023-04-02T13:29:17.575Z,46.78
2023-04-02T13:31:43.974Z,46.33
2023-04-02T13:34:10.482Z,46.99
2023-04-02T13:36:37.343Z,50.47
2023-04-02T13:39:03.864Z,45.73
2023-04-02T13:41:34.751Z,44.94
2023-04-02T13:44:03.296Z,44.65
2023-04-02T13:46:32.412Z,44.05
2023-04-02T13:48:59.297Z,42.52
2023-04-02T13:51:36.991Z,42.92
2023-04-02T13:54:08.807Z,43.67
2023-04-02T13:56:36.031Z,44.05
2023-04-02T13:59:02.474Z,43.77
2023-04-02T14:01:28.849Z,43.56
2023-04-02T14:03:56.653Z,43.97
2023-04-02T14:06:52.221Z,43.73
2023-04-02T14:09:31.732Z,42.24
2023-04-02T14:12:17.685Z,40.96
2023-04-02T14:15:01.885Z,40.80
2023-04-02T14:17:47.553Z,41.01
2023-04-02T14:20:33.136Z,41.58
2023-04-02T14:23:12.745Z,41.35
2023-04-02T14:26:05.357Z,40.97
2023-04-02T14:28:45.778Z,40.98
2023-04-02T14:31:51.219Z,40.37
2023-04-02T14:34:39.805Z,41.68
2023-04-02T14:37:18.326Z,42.19
2023-04-02T14:40:22.404Z,43.58
2023-04-02T14:42:57.770Z,43.53
2023-04-02T14:45:27.142Z,42.37
2023-04-02T14:48:17.474Z,41.86
2023-04-02T14:50:44.062Z,42.23
2023-04-02T14:53:33.822Z,42.50
2023-04-02T14:56:03.438Z,42.72
2023-04-02T14:58:36.771Z,42.50
2023-04-02T15:01:09.544Z,41.96
2023-04-02T15:03:58.145Z,45.43
2023-04-02T15:06:31.163Z,46.11
2023-04-02T15:09:23.325Z,44.54
2023-04-02T15:11:52.712Z,44.31
2023-04-02T15:14:25.261Z,43.65
2023-04-02T15:16:51.630Z,43.19
2023-04-02T15:19:19.473Z,42.86
2023-04-02T15:24:42.492Z,42.33
2023-04-02T15:27:48.457Z,42.02
2023-04-02T15:30:22.959Z,44.00
2023-04-02T15:32:49.520Z,42.41
2023-04-02T15:35:21.779Z,42.32
2023-04-02T15:38:21.509Z,41.91
2023-04-02T15:41:23.410Z,41.89
2023-04-02T15:44:10.876Z,41.66
2023-04-02T15:46:43.569Z,42.54
2023-04-02T15:49:20.108Z,42.83
2023-04-02T15:52:01.771Z,43.88
2023-04-02T15:54:40.204Z,44.26
2023-04-02T15:57:24.216Z,44.76
2023-04-02T16:00:30.334Z,44.60
2023-04-02T16:03:26.486Z,44.04
2023-04-02T16:06:17.106Z,42.60
2023-04-02T16:09:09.860Z,40.48
2023-04-02T16:11:36.607Z,39.96
2023-04-02T16:14:21.057Z,39.63
2023-04-02T16:16:50.281Z,39.88
2023-04-02T16:19:25.628Z,40.50
2023-04-02T16:22:11.192Z,41.16
2023-04-02T16:24:37.574Z,42.24
2023-04-02T16:27:22.048Z,42.04
2023-04-02T16:30:00.899Z,42.54
2023-04-02T16:32:56.233Z,41.99
2023-04-02T16:38:15.217Z,40.31
2023-04-02T16:41:07.935Z,38.22
2023-04-02T16:44:20.124Z,37.77
2023-04-02T16:47:14.595Z,37.31
2023-04-02T16:49:55.355Z,38.25
2023-04-02T16:52:39.677Z,38.78
2023-04-02T16:55:29.719Z,39.93
2023-04-02T16:58:34.033Z,40.38
2023-04-02T17:01:21.513Z,41.20
2023-04-02T17:04:08.862Z,40.08
2023-04-02T17:06:53.869Z,39.49
2023-04-02T17:09:32.644Z,39.31
2023-04-02T17:12:26.345Z,39.12
2023-04-02T17:15:01.023Z,39.60
2023-04-02T17:17:27.652Z,41.18
2023-04-02T17:19:58.473Z,42.25
2023-04-02T17:22:24.910Z,42.47
2023-04-02T17:25:00.181Z,42.69
2023-04-02T17:27:35.454Z,43.22
2023-04-02T17:30:17.797Z,43.46
2023-04-02T17:32:44.361Z,44.48
2023-04-02T17:35:16.973Z,44.46
2023-04-02T17:37:50.288Z,44.71
2023-04-02T17:40:42.689Z,44.70
2023-04-02T17:43:31.080Z,44.72
2023-04-02T17:46:11.154Z,45.45
2023-04-02T17:48:44.597Z,45.94
2023-04-02T17:51:19.972Z,46.88
2023-04-02T17:53:52.273Z,46.63
2023-04-02T17:56:27.192Z,47.25
2023-04-02T17:58:59.659Z,47.50
2023-04-02T18:02:07.011Z,48.73
2023-04-02T18:05:00.489Z,47.82
2023-04-02T18:07:42.657Z,48.07
2023-04-02T18:10:34.589Z,47.60
2023-04-02T18:13:23.993Z,47.58
2023-04-02T18:16:16.719Z,48.32
2023-04-02T18:18:56.158Z,48.16
2023-04-02T18:21:28.578Z,47.84
2023-04-02T18:24:24.187Z,48.22
2023-04-02T18:27:12.264Z,48.03
2023-04-02T18:29:47.720Z,47.99
2023-04-02T18:32:41.959Z,49.18
2023-04-02T18:35:25.441Z,52.63
2023-04-02T18:38:13.250Z,56.85
2023-04-02T18:41:20.150Z,57.66
2023-04-02T18:44:22.180Z,58.13
2023-04-02T18:47:14.135Z,59.30
2023-04-02T18:49:47.188Z,59.92
2023-04-02T18:52:15.571Z,59.96
2023-04-02T18:54:49.239Z,59.39
2023-04-02T18:57:39.380Z,58.63
2023-04-02T19:00:16.652Z,58.62
2023-04-02T19:02:49.124Z,58.40
2023-04-02T19:05:24.847Z,59.52
2023-04-02T19:07:59.076Z,59.11
2023-04-02T19:10:34.052Z,58.92
2023-04-02T19:13:00.804Z,58.61
2023-04-02T19:15:40.476Z,59.14
2023-04-02T19:18:31.610Z,59.71
2023-04-02T19:21:11.790Z,59.13
2023-04-02T19:24:18.705Z,60.74
2023-04-02T19:26:52.044Z,60.26
2023-04-02T19:30:03.294Z,60.15
2023-04-02T19:32:40.931Z,60.32
2023-04-02T19:35:22.793Z,59.72
2023-04-02T19:37:51.968Z,60.92
2023-04-02T19:40:31.690Z,61.39
2023-04-02T19:42:58.438Z,61.45
2023-04-02T19:45:31.472Z,64.44
2023-04-02T19:48:00.605Z,65.87
2023-04-02T19:50:27.036Z,65.62
2023-04-02T19:52:53.430Z,65.43
2023-04-02T19:55:19.850Z,65.02
2023-04-02T19:57:46.239Z,66.67
2023-04-02T20:00:14.760Z,69.76
2023-04-02T20:02:41.190Z,69.70
2023-04-02T20:05:08.379Z,67.73
2023-04-02T20:07:34.747Z,70.30
2023-04-02T20:10:01.313Z,72.38
2023-04-02T20:12:27.645Z,71.70
2023-04-02T20:14:53.984Z,70.69
2023-04-02T20:17:20.556Z,70.74
2023-04-02T20:19:46.894Z,70.09
2023-04-02T20:22:13.332Z,69.81
2023-04-02T20:24:40.913Z,68.97
2023-04-02T20:27:07.251Z,69.30
2023-04-02T20:29:33.618Z,68.63
2023-04-02T20:31:59.935Z,67.36
2023-04-02T20:34:26.404Z,67.55
2023-04-02T20:36:53.543Z,67.70
2023-04-02T20:39:21.345Z,67.45
2023-04-02T20:41:47.959Z,67.44
2023-04-02T20:44:14.606Z,67.58
2023-04-02T20:46:41.487Z,66.76
2023-04-02T20:49:07.982Z,66.78
2023-04-02T20:51:34.410Z,67.03
2023-04-02T20:54:00.798Z,66.82
2023-04-02T20:56:27.777Z,67.05
2023-04-02T20:58:54.144Z,66.98
2023-04-02T21:01:26.059Z,67.95
2023-04-02T21:04:03.671Z,68.59
2023-04-02T21:06:33.523Z,69.76
2023-04-02T21:09:02.294Z,70.00
2023-04-02T21:11:28.725Z,69.27
2023-04-02T21:13:55.176Z,69.87
2023-04-02T21:16:24.976Z,70.23
2023-04-02T21:18:52.929Z,70.00
2023-04-02T21:21:20.848Z,70.52
2023-04-02T21:23:47.616Z,70.62
2023-04-02T21:26:17.922Z,71.87
2023-04-02T21:28:45.537Z,71.86
2023-04-02T21:31:17.998Z,71.84
2023-04-02T21:33:46.886Z,70.65
2023-04-02T21:36:16.919Z,70.19
2023-04-02T21:38:48.514Z,70.17
2023-04-02T21:41:17.787Z,69.49
2023-04-02T21:43:46.010Z,69.74
2023-04-02T21:46:12.503Z,69.38
2023-04-02T21:48:40.478Z,69.96
2023-04-02T21:51:15.968Z,69.87
2023-04-02T21:53:43.099Z,71.81
2023-04-02T21:56:13.514Z,72.46
2023-04-02T21:58:40.496Z,72.93
2023-04-02T22:01:09.094Z,73.09
2023-04-02T22:03:40.619Z,73.22
2023-04-02T22:06:13.970Z,72.94
2023-04-02T22:08:41.845Z,73.33
2023-04-02T22:11:11.752Z,72.62
2023-04-02T22:13:40.120Z,73.07
2023-04-02T22:16:10.359Z,73.43
2023-04-02T22:18:38.094Z,73.00
2023-04-02T22:21:05.657Z,73.18
2023-04-02T22:23:32.434Z,73.92
2023-04-02T22:26:00.282Z,73.14
2023-04-02T22:28:27.737Z,72.49
2023-04-02T22:30:55.670Z,72.38
2023-04-02T22:33:22.495Z,72.02
2023-04-02T22:35:51.742Z,71.39
2023-04-02T22:38:19.179Z,72.76
2023-04-02T22:40:45.816Z,73.31
2023-04-02T22:43:12.347Z,73.08
2023-04-02T22:45:38.664Z,73.90
2023-04-02T22:48:05.289Z,73.88
2023-04-02T22:50:31.841Z,74.13
2023-04-02T22:52:58.233Z,74.51
2023-04-02T22:55:24.610Z,73.64
2023-04-02T22:57:50.965Z,75.40
2023-04-02T23:00:18.180Z,75.92
2023-04-02T23:02:44.636Z,76.67
2023-04-02T23:05:11.200Z,77.68
2023-04-02T23:07:38.255Z,77.53
2023-04-02T23:10:05.894Z,77.13
2023-04-02T23:12:32.358Z,75.92
2023-04-02T23:14:59.260Z,75.92
2023-04-02T23:17:25.800Z,76.19
2023-04-02T23:19:52.170Z,76.77
2023-04-02T23:22:18.527Z,77.32
2023-04-02T23:24:44.861Z,76.86
2023-04-02T23:27:11.188Z,77.21
2023-04-02T23:29:37.507Z,77.63
2023-04-02T23:32:04.000Z,77.50
2023-04-02T23:34:30.497Z,77.81
2023-04-02T23:36:56.833Z,77.29
2023-04-02T23:39:23.172Z,76.88
2023-04-02T23:41:49.532Z,76.12
2023-04-02T23:44:15.921Z,76.35
2023-04-02T23:46:42.329Z,76.20
2023-04-02T23:49:11.202Z,76.05
2023-04-02T23:51:37.536Z,75.26
2023-04-02T23:54:03.991Z,75.18
2023-04-02T23:56:30.453Z,75.03
2023-04-02T23:58:56.943Z,74.32
